createdAt,value
2022-11-05T00:02:24.946Z,92.33
2022-11-05T00:05:11.269Z,92.50
2022-11-05T00:07:59.236Z,92.45
2022-11-05T00:10:29.139Z,92.31
2022-11-05T00:13:16.073Z,91.74
2022-11-05T00:16:01.460Z,91.54
2022-11-05T00:18:29.058Z,91.69
2022-11-05T00:20:58.599Z,91.31
2022-11-05T00:23:43.671Z,91.38
2022-11-05T00:26:12.354Z,91.33
2022-11-05T00:28:43.570Z,91.30
2022-11-05T00:31:13.395Z,91.07
2022-11-05T00:33:42.516Z,90.53
2022-11-05T00:36:12.668Z,90.42
2022-11-05T00:38:40.274Z,90.40
2022-11-05T00:41:07.828Z,89.50
2022-11-05T00:43:55.461Z,89.13
2022-11-05T00:46:23.270Z,89.52
2022-11-05T00:49:08.361Z,89.78
2022-11-05T00:51:37.307Z,89.74
2022-11-05T00:54:06.144Z,89.82
2022-11-05T00:56:33.687Z,89.79
2022-11-05T00:59:01.214Z,89.93
2022-11-05T01:01:28.887Z,90.15
2022-11-05T01:03:56.553Z,90.32
2022-11-05T01:06:24.111Z,89.71
2022-11-05T01:08:53.019Z,90.02
2022-11-05T01:11:33.933Z,89.99
2022-11-05T01:14:02.159Z,89.65
2022-11-05T01:16:30.469Z,89.97
2022-11-05T01:18:58.131Z,89.75
2022-11-05T01:21:25.776Z,89.80
2022-11-05T01:23:55.358Z,89.64
2022-11-05T01:26:23.132Z,90.03
2022-11-05T01:28:52.154Z,90.16
2022-11-05T01:31:20.011Z,90.33
2022-11-05T01:33:47.770Z,90.07
2022-11-05T01:36:15.368Z,90.43
2022-11-05T01:38:43.001Z,90.51
2022-11-05T01:41:12.177Z,90.84
2022-11-05T01:43:47.965Z,90.31
2022-11-05T01:46:17.133Z,90.99
2022-11-05T01:48:44.857Z,90.19
2022-11-05T01:51:15.459Z,90.31
2022-11-05T01:53:45.682Z,90.18
2022-11-05T01:56:17.132Z,90.05
2022-11-05T01:58:49.007Z,90.03
2022-11-05T02:01:16.941Z,90.28
2022-11-05T02:03:46.028Z,89.75
2022-11-05T02:06:18.043Z,89.40
2022-11-05T02:08:56.866Z,89.78
2022-11-05T02:11:25.836Z,89.97
2022-11-05T02:13:54.820Z,89.93
2022-11-05T02:16:36.376Z,89.65
2022-11-05T02:19:22.886Z,89.50
2022-11-05T02:22:34.885Z,89.72
2022-11-05T02:25:20.390Z,89.37
2022-11-05T02:28:16.059Z,89.97
2022-11-05T02:30:49.451Z,89.99
2022-11-05T02:33:28.443Z,90.29
2022-11-05T02:36:21.588Z,89.75
2022-11-05T02:38:59.449Z,89.43
2022-11-05T02:41:36.516Z,89.10
2022-11-05T02:44:15.323Z,89.22
2022-11-05T02:46:52.412Z,88.72
2022-11-05T02:49:30.513Z,88.78
2022-11-05T02:51:59.751Z,88.95
2022-11-05T02:54:33.365Z,89.24
2022-11-05T02:57:03.649Z,89.37
2022-11-05T02:59:31.280Z,88.79
2022-11-05T03:02:01.866Z,89.20
2022-11-05T03:04:31.084Z,88.79
2022-11-05T03:07:28.604Z,88.71
2022-11-05T03:10:27.088Z,88.32
2022-11-05T03:13:08.416Z,87.30
2022-11-05T03:15:49.257Z,87.81
2022-11-05T03:18:26.370Z,87.71
2022-11-05T03:21:01.823Z,87.54
2022-11-05T03:23:43.804Z,87.63
2022-11-05T03:26:18.581Z,87.93
2022-11-05T03:28:51.551Z,87.80
2022-11-05T03:31:21.953Z,87.84
2022-11-05T03:33:54.017Z,87.64
2022-11-05T03:36:26.352Z,87.71
2022-11-05T03:38:57.032Z,87.10
2022-11-05T03:41:26.608Z,86.76
2022-11-05T03:43:58.795Z,86.57
2022-11-05T03:46:40.277Z,85.73
2022-11-05T03:49:15.345Z,85.68
2022-11-05T03:51:47.765Z,85.62
2022-11-05T03:54:15.637Z,85.54
2022-11-05T03:56:51.629Z,85.43
2022-11-05T03:59:20.974Z,85.65
2022-11-05T04:01:49.931Z,85.01
2022-11-05T04:04:19.026Z,85.21
2022-11-05T04:07:04.061Z,85.31
2022-11-05T04:09:49.336Z,84.57
2022-11-05T04:12:34.385Z,84.99
2022-11-05T04:15:01.950Z,84.79
2022-11-05T04:17:28.527Z,85.08
2022-11-05T04:20:15.092Z,84.92
2022-11-05T04:23:00.326Z,85.69
2022-11-05T04:25:28.097Z,85.59
2022-11-05T04:27:59.730Z,86.04
2022-11-05T04:30:27.146Z,86.12
2022-11-05T04:33:01.639Z,86.38
2022-11-05T04:35:32.584Z,86.09
2022-11-05T04:38:00.431Z,85.95
2022-11-05T04:40:28.146Z,85.73
2022-11-05T04:42:57.025Z,85.98
2022-11-05T04:45:25.779Z,86.43
2022-11-05T04:47:53.529Z,85.90
2022-11-05T04:50:21.580Z,86.00
2022-11-05T04:52:50.516Z,85.86
2022-11-05T04:55:18.317Z,85.84
2022-11-05T04:57:48.552Z,86.03
2022-11-05T05:00:17.373Z,86.57
2022-11-05T05:02:45.381Z,86.92
2022-11-05T05:05:13.649Z,87.68
2022-11-05T05:07:41.875Z,88.71
2022-11-05T05:10:11.622Z,88.56
2022-11-05T05:12:39.264Z,88.43
2022-11-05T05:15:07.807Z,89.26
2022-11-05T05:17:35.440Z,89.13
2022-11-05T05:20:20.658Z,89.22
2022-11-05T05:22:53.836Z,89.56
2022-11-05T05:25:23.456Z,88.76
2022-11-05T05:27:51.099Z,88.88
2022-11-05T05:30:19.076Z,89.01
2022-11-05T05:32:46.660Z,88.53
2022-11-05T05:35:14.230Z,88.41
2022-11-05T05:37:42.139Z,88.54
2022-11-05T05:40:10.918Z,88.52
2022-11-05T05:42:43.143Z,88.75
2022-11-05T05:45:12.510Z,88.78
2022-11-05T05:47:40.117Z,88.92
2022-11-05T05:50:08.035Z,88.85
2022-11-05T05:52:35.627Z,89.00
2022-11-05T05:55:03.195Z,88.99
2022-11-05T05:57:30.757Z,89.04
2022-11-05T06:00:01.735Z,88.85
2022-11-05T06:02:31.381Z,89.04
2022-11-05T06:04:59.041Z,89.08
2022-11-05T06:07:26.821Z,89.19
2022-11-05T06:09:54.559Z,88.92
2022-11-05T06:12:22.327Z,89.08
2022-11-05T06:14:50.295Z,89.63
2022-11-05T06:17:19.201Z,89.69
2022-11-05T06:19:46.959Z,89.71
2022-11-05T06:22:14.568Z,89.76
2022-11-05T06:24:42.143Z,89.96
2022-11-05T06:27:09.692Z,90.06
2022-11-05T06:29:37.465Z,90.25
2022-11-05T06:32:05.336Z,90.67
2022-11-05T06:34:34.260Z,90.52
2022-11-05T06:37:01.808Z,90.57
2022-11-05T06:39:29.524Z,90.40
2022-11-05T06:42:17.447Z,90.33
2022-11-05T06:44:44.651Z,90.37
2022-11-05T06:47:12.384Z,90.38
2022-11-05T06:49:41.311Z,89.69
2022-11-05T06:52:09.941Z,89.77
2022-11-05T06:54:37.536Z,89.31
2022-11-05T06:57:06.130Z,89.92
2022-11-05T06:59:34.361Z,89.89
2022-11-05T07:02:01.977Z,90.07
2022-11-05T07:04:29.631Z,90.09
2022-11-05T07:06:59.881Z,89.99
2022-11-05T07:09:27.456Z,90.18
2022-11-05T07:11:55.365Z,89.76
2022-11-05T07:14:23.126Z,89.73
2022-11-05T07:16:50.797Z,90.06
2022-11-05T07:19:18.377Z,89.91
2022-11-05T07:21:45.971Z,90.43
2022-11-05T07:24:15.439Z,90.02
2022-11-05T07:26:43.190Z,89.83
2022-11-05T07:29:11.548Z,89.74
2022-11-05T07:31:39.112Z,89.56
2022-11-05T07:34:07.131Z,89.58
2022-11-05T07:36:34.805Z,89.80
2022-11-05T07:39:02.420Z,90.08
2022-11-05T07:41:31.347Z,90.18
2022-11-05T07:43:58.888Z,90.31
2022-11-05T07:46:26.480Z,89.96
2022-11-05T07:48:54.051Z,90.22
2022-11-05T07:51:21.624Z,90.08
2022-11-05T07:53:49.380Z,89.72
2022-11-05T07:56:17.397Z,89.31
2022-11-05T07:58:46.427Z,88.79
2022-11-05T08:01:14.052Z,88.58
2022-11-05T08:03:41.768Z,88.49
2022-11-05T08:06:09.461Z,87.03
2022-11-05T08:08:37.026Z,86.81
2022-11-05T08:11:05.576Z,86.58
2022-11-05T08:13:33.557Z,86.55
2022-11-05T08:16:02.868Z,86.49
2022-11-05T08:18:32.468Z,86.24
2022-11-05T08:21:01.210Z,86.20
2022-11-05T08:23:29.691Z,86.50
2022-11-05T08:25:58.284Z,86.29
2022-11-05T08:28:27.205Z,86.27
2022-11-05T08:30:57.189Z,85.84
2022-11-05T08:33:27.459Z,85.15
2022-11-05T08:35:56.000Z,85.59
2022-11-05T08:38:23.850Z,85.79
2022-11-05T08:40:57.506Z,85.21
2022-11-05T08:43:25.592Z,85.23
2022-11-05T08:45:55.146Z,85.60
2022-11-05T08:48:22.911Z,85.66
2022-11-05T08:50:51.814Z,85.32
2022-11-05T08:53:19.393Z,85.07
2022-11-05T08:55:49.890Z,84.73
2022-11-05T08:58:18.004Z,85.46
2022-11-05T09:00:47.585Z,85.17
2022-11-05T09:03:15.984Z,85.06
2022-11-05T09:05:43.770Z,85.15
2022-11-05T09:08:14.129Z,84.82
2022-11-05T09:10:42.373Z,84.56
2022-11-05T09:13:17.852Z,84.25
2022-11-05T09:15:46.999Z,83.69
2022-11-05T09:18:16.358Z,82.98
2022-11-05T09:20:44.180Z,82.60
2022-11-05T09:23:15.085Z,82.68
2022-11-05T09:25:42.989Z,82.45
2022-11-05T09:28:16.466Z,82.15
2022-11-05T09:30:46.542Z,81.93
2022-11-05T09:33:15.895Z,82.10
2022-11-05T09:35:44.165Z,80.72
2022-11-05T09:38:14.175Z,80.39
2022-11-05T09:40:49.072Z,79.20
2022-11-05T09:43:20.178Z,77.86
2022-11-05T09:45:50.442Z,76.25
2022-11-05T09:48:22.630Z,75.94
2022-11-05T09:50:52.668Z,76.38
2022-11-05T09:53:24.248Z,75.43
2022-11-05T09:55:55.396Z,74.98
2022-11-05T09:58:35.258Z,73.81
2022-11-05T10:01:05.381Z,75.39
2022-11-05T10:03:39.565Z,75.10
2022-11-05T10:06:10.252Z,75.31
2022-11-05T10:08:43.858Z,74.45
2022-11-05T10:11:16.655Z,73.65
2022-11-05T10:13:48.225Z,73.73
2022-11-05T10:16:24.570Z,73.54
2022-11-05T10:18:56.124Z,72.79
2022-11-05T10:21:44.264Z,72.98
2022-11-05T10:24:15.987Z,70.69
2022-11-05T10:26:46.403Z,70.24
2022-11-05T10:29:17.074Z,68.86
2022-11-05T10:31:45.187Z,69.54
2022-11-05T10:34:17.880Z,69.32
2022-11-05T10:36:45.608Z,68.47
2022-11-05T10:39:17.371Z,69.15
2022-11-05T10:42:02.534Z,70.59
2022-11-05T10:44:35.940Z,67.53
2022-11-05T10:47:18.641Z,63.16
2022-11-05T10:49:55.826Z,60.18
2022-11-05T10:52:26.078Z,60.32
2022-11-05T10:55:00.485Z,60.91
2022-11-05T10:57:34.219Z,57.03
2022-11-05T11:00:25.933Z,55.88
2022-11-05T11:02:56.294Z,55.40
2022-11-05T11:05:28.283Z,56.14
2022-11-05T11:08:05.235Z,56.54
2022-11-05T11:10:38.505Z,57.05
2022-11-05T11:13:07.324Z,54.54
2022-11-05T11:15:37.092Z,53.99
2022-11-05T11:18:26.130Z,49.20
2022-11-05T11:20:53.863Z,51.97
2022-11-05T11:23:22.521Z,53.14
2022-11-05T11:25:58.475Z,49.74
2022-11-05T11:28:30.104Z,49.15
2022-11-05T11:31:07.384Z,50.74
2022-11-05T11:33:36.040Z,50.84
2022-11-05T11:36:05.083Z,52.06
2022-11-05T11:38:35.368Z,53.86
2022-11-05T11:41:24.832Z,51.99
2022-11-05T11:43:57.725Z,53.26
2022-11-05T11:46:25.760Z,53.69
2022-11-05T11:48:53.556Z,55.01
2022-11-05T11:51:31.787Z,54.79
2022-11-05T11:54:00.700Z,52.86
2022-11-05T11:56:32.471Z,54.98
2022-11-05T11:59:04.407Z,56.20
2022-11-05T12:01:45.029Z,58.69
2022-11-05T12:04:45.404Z,60.96
2022-11-05T12:07:26.338Z,61.71
2022-11-05T12:10:09.776Z,61.17
2022-11-05T12:12:45.838Z,60.53
2022-11-05T12:15:26.487Z,59.41
2022-11-05T12:17:59.034Z,61.42
2022-11-05T12:20:48.249Z,61.69
2022-11-05T12:23:40.194Z,60.80
2022-11-05T12:26:19.645Z,60.73
2022-11-05T12:29:24.460Z,62.01
2022-11-05T12:32:04.028Z,62.50
2022-11-05T12:34:47.757Z,62.63
2022-11-05T12:37:29.635Z,62.47
2022-11-05T12:40:08.661Z,62.82
2022-11-05T12:42:48.001Z,62.62
2022-11-05T12:45:30.736Z,63.28
2022-11-05T12:48:10.546Z,63.00
2022-11-05T12:50:45.151Z,61.62
2022-11-05T12:53:26.584Z,62.45
2022-11-05T12:55:55.576Z,62.13
2022-11-05T12:58:28.707Z,62.20
2022-11-05T13:01:01.552Z,61.88
2022-11-05T13:03:39.994Z,62.65
2022-11-05T13:06:12.169Z,62.40
2022-11-05T13:08:47.713Z,61.78
2022-11-05T13:11:22.339Z,62.36
2022-11-05T13:14:00.593Z,61.34
2022-11-05T13:16:34.970Z,60.99
2022-11-05T13:19:13.656Z,61.32
2022-11-05T13:21:43.741Z,61.73
2022-11-05T13:24:17.628Z,62.12
2022-11-05T13:26:52.021Z,61.47
2022-11-05T13:29:24.181Z,62.71
2022-11-05T13:31:58.433Z,63.24
2022-11-05T13:34:26.142Z,62.85
2022-11-05T13:37:15.416Z,64.05
2022-11-05T13:39:48.156Z,64.35
2022-11-05T13:42:43.595Z,64.52
2022-11-05T13:45:28.162Z,63.97
2022-11-05T13:48:12.551Z,64.13
2022-11-05T13:50:52.832Z,64.25
2022-11-05T13:53:42.636Z,64.97
2022-11-05T13:56:22.868Z,64.96
2022-11-05T13:59:36.115Z,65.23
2022-11-05T14:02:11.792Z,66.06
2022-11-05T14:04:45.989Z,66.88
2022-11-05T14:07:18.322Z,67.23
2022-11-05T14:09:48.485Z,67.51
2022-11-05T14:12:24.184Z,67.68
2022-11-05T14:14:59.067Z,67.77
2022-11-05T14:17:32.136Z,67.52
2022-11-05T14:20:27.841Z,67.82
2022-11-05T14:23:28.723Z,68.41
2022-11-05T14:25:58.203Z,68.46
2022-11-05T14:28:42.477Z,68.96
2022-11-05T14:31:54.299Z,69.68
2022-11-05T14:34:41.027Z,69.94
2022-11-05T14:37:36.923Z,70.28
2022-11-05T14:40:33.052Z,71.07
2022-11-05T14:43:02.564Z,71.20
2022-11-05T14:45:33.132Z,71.51
2022-11-05T14:48:02.943Z,71.60
2022-11-05T14:50:38.324Z,71.93
2022-11-05T14:53:27.690Z,71.86
2022-11-05T14:56:02.634Z,72.21
2022-11-05T14:58:36.517Z,72.45
2022-11-05T15:01:06.862Z,72.50
2022-11-05T15:03:47.071Z,72.95
2022-11-05T15:06:32.644Z,73.02
2022-11-05T15:09:27.873Z,74.04
2022-11-05T15:12:04.012Z,74.13
2022-11-05T15:14:35.283Z,74.45
2022-11-05T15:17:15.194Z,74.28
2022-11-05T15:19:44.119Z,74.78
2022-11-05T15:22:26.001Z,74.47
2022-11-05T15:24:56.121Z,74.12
2022-11-05T15:27:37.287Z,73.95
2022-11-05T15:30:14.745Z,73.41
2022-11-05T15:32:42.614Z,73.35
2022-11-05T15:35:26.755Z,73.35
2022-11-05T15:38:01.699Z,74.04
2022-11-05T15:40:34.279Z,73.57
2022-11-05T15:43:25.794Z,73.61
2022-11-05T15:46:06.528Z,73.86
2022-11-05T15:48:35.338Z,74.14
2022-11-05T15:51:03.523Z,74.17
2022-11-05T15:56:25.783Z,74.41
2022-11-05T15:58:56.371Z,74.67
2022-11-05T16:01:27.898Z,74.88
2022-11-05T16:03:57.848Z,74.92
2022-11-05T16:06:30.501Z,74.96
2022-11-05T16:08:58.224Z,74.97
2022-11-05T16:11:27.822Z,74.66
2022-11-05T16:14:14.918Z,74.86
2022-11-05T16:16:43.175Z,75.17
2022-11-05T16:19:40.158Z,75.59
2022-11-05T16:22:08.615Z,75.79
2022-11-05T16:24:36.196Z,76.20
2022-11-05T16:27:06.257Z,75.78
2022-11-05T16:29:35.619Z,76.20
2022-11-05T16:32:06.707Z,76.29
2022-11-05T16:34:38.920Z,76.71
2022-11-05T16:37:08.663Z,76.27
2022-11-05T16:39:36.166Z,76.28
2022-11-05T16:42:36.999Z,76.50
2022-11-05T16:45:05.156Z,76.66
2022-11-05T16:47:32.889Z,76.18
2022-11-05T16:50:00.579Z,76.42
2022-11-05T16:52:28.283Z,76.75
2022-11-05T16:54:56.841Z,76.51
2022-11-05T16:57:28.214Z,76.47
2022-11-05T16:59:56.878Z,76.68
2022-11-05T17:02:24.545Z,76.52
2022-11-05T17:04:52.392Z,76.63
2022-11-05T17:07:20.134Z,76.73
2022-11-05T17:09:47.759Z,76.84
2022-11-05T17:12:16.166Z,77.01
2022-11-05T17:14:45.093Z,77.90
2022-11-05T17:17:12.660Z,77.70
2022-11-05T17:19:42.395Z,77.95
2022-11-05T17:22:10.283Z,77.89
2022-11-05T17:24:38.804Z,77.79
2022-11-05T17:27:06.461Z,78.04
2022-11-05T17:29:34.250Z,78.35
2022-11-05T17:32:03.164Z,79.13
2022-11-05T17:34:30.829Z,79.43
2022-11-05T17:36:58.368Z,79.91
2022-11-05T17:39:31.251Z,80.93
2022-11-05T17:41:59.307Z,80.51
2022-11-05T17:44:26.895Z,80.32
2022-11-05T17:46:54.480Z,79.53
2022-11-05T17:49:23.528Z,79.05
2022-11-05T17:51:51.088Z,79.44
2022-11-05T17:54:18.752Z,79.88
2022-11-05T17:56:46.470Z,79.98
2022-11-05T17:59:14.055Z,78.93
2022-11-05T18:01:43.463Z,79.96
2022-11-05T18:04:11.566Z,79.78
2022-11-05T18:06:41.833Z,79.70
2022-11-05T18:09:11.428Z,79.22
2022-11-05T18:11:40.120Z,79.39
2022-11-05T18:14:08.418Z,79.79
2022-11-05T18:16:36.832Z,79.87
2022-11-05T18:19:04.621Z,79.20
2022-11-05T18:21:32.204Z,78.76
2022-11-05T18:24:03.472Z,78.40
2022-11-05T18:26:32.139Z,77.38
2022-11-05T18:29:01.127Z,76.69
2022-11-05T18:31:30.031Z,76.47
2022-11-05T18:33:59.310Z,76.30
2022-11-05T18:36:29.502Z,76.75
2022-11-05T18:38:58.575Z,77.61
2022-11-05T18:41:27.719Z,77.41
2022-11-05T18:43:59.597Z,78.01
2022-11-05T18:46:56.002Z,78.64
2022-11-05T18:49:14.807Z,79.80
2022-11-05T18:51:43.435Z,80.18
2022-11-05T18:54:11.117Z,80.34
2022-11-05T18:56:45.177Z,80.08
2022-11-05T18:59:35.207Z,79.92
2022-11-05T19:02:01.247Z,80.35
2022-11-05T19:04:30.467Z,79.86
2022-11-05T19:07:03.345Z,79.55
2022-11-05T19:09:32.394Z,78.70
2022-11-05T19:12:01.893Z,78.81
2022-11-05T19:14:30.638Z,79.63
2022-11-05T19:17:00.399Z,79.63
2022-11-05T19:19:28.584Z,79.41
2022-11-05T19:21:56.305Z,79.69
2022-11-05T19:24:24.108Z,80.30
2022-11-05T19:26:51.793Z,80.23
2022-11-05T19:29:20.916Z,79.47
2022-11-05T19:31:48.790Z,79.89
2022-11-05T19:34:16.548Z,80.09
2022-11-05T19:36:44.285Z,80.32
2022-11-05T19:39:14.408Z,80.17
2022-11-05T19:41:42.297Z,80.43
2022-11-05T19:44:10.049Z,80.43
2022-11-05T19:46:39.234Z,80.88
2022-11-05T19:49:06.962Z,80.69
2022-11-05T19:51:34.772Z,80.87
2022-11-05T19:54:04.091Z,80.49
2022-11-05T19:56:34.148Z,80.68
2022-11-05T19:59:03.799Z,81.52
2022-11-05T20:01:31.936Z,81.41
2022-11-05T20:04:02.374Z,81.88
2022-11-05T20:06:33.344Z,82.62
2022-11-05T20:11:50.753Z,83.81
2022-11-05T20:14:18.512Z,83.86
2022-11-05T20:16:47.628Z,83.14
2022-11-05T20:19:18.717Z,83.16
2022-11-05T20:21:46.604Z,83.23
2022-11-05T20:24:20.618Z,83.61
2022-11-05T20:26:52.124Z,82.92
2022-11-05T20:29:19.927Z,83.17
2022-11-05T20:31:47.848Z,84.41
2022-11-05T20:34:16.871Z,83.09
2022-11-05T20:36:44.618Z,83.48
2022-11-05T20:39:12.723Z,83.37
2022-11-05T20:41:40.460Z,84.15
2022-11-05T20:44:08.402Z,82.95
2022-11-05T20:46:36.209Z,82.80
2022-11-05T20:49:03.868Z,83.08
2022-11-05T20:51:32.973Z,83.49
2022-11-05T20:54:02.325Z,82.76
2022-11-05T20:56:31.366Z,83.68
2022-11-05T20:59:00.544Z,83.17
2022-11-05T21:01:30.359Z,83.64
2022-11-05T21:03:59.574Z,83.16
2022-11-05T21:06:27.570Z,84.18
2022-11-05T21:08:57.056Z,84.71
2022-11-05T21:11:24.877Z,84.21
2022-11-05T21:13:52.791Z,84.42
2022-11-05T21:16:20.914Z,84.58
2022-11-05T21:18:48.889Z,84.82
2022-11-05T21:21:19.328Z,84.25
2022-11-05T21:23:47.347Z,84.07
2022-11-05T21:26:18.603Z,84.30
2022-11-05T21:28:46.549Z,84.30
2022-11-05T21:31:14.266Z,84.10
2022-11-05T21:33:42.116Z,83.71
2022-11-05T21:36:11.578Z,84.03
2022-11-05T21:38:39.905Z,84.22
2022-11-05T21:41:08.277Z,84.17
2022-11-05T21:43:39.192Z,83.98
2022-11-05T21:46:06.797Z,83.20
2022-11-05T21:48:34.912Z,83.24
2022-11-05T21:51:19.930Z,84.34
2022-11-05T21:54:05.330Z,84.63
2022-11-05T21:56:50.860Z,83.97
2022-11-05T21:59:50.396Z,84.61
2022-11-05T22:02:21.526Z,84.19
2022-11-05T22:04:50.760Z,84.02
2022-11-05T22:07:20.556Z,84.08
2022-11-05T22:09:48.608Z,82.90
2022-11-05T22:12:16.546Z,83.45
2022-11-05T22:14:45.730Z,83.45
2022-11-05T22:17:14.485Z,83.71
2022-11-05T22:19:42.457Z,84.17
2022-11-05T22:22:10.337Z,81.86
2022-11-05T22:24:38.549Z,82.24
2022-11-05T22:27:08.584Z,82.48
2022-11-05T22:29:37.011Z,82.70
2022-11-05T22:32:06.856Z,82.46
2022-11-05T22:34:34.760Z,82.26
2022-11-05T22:37:03.459Z,82.39
2022-11-05T22:39:31.369Z,82.33
2022-11-05T22:42:03.107Z,82.51
2022-11-05T22:44:33.575Z,82.01
2022-11-05T22:47:01.144Z,81.70
2022-11-05T22:49:30.025Z,81.26
2022-11-05T22:51:57.892Z,81.48
2022-11-05T22:54:25.660Z,82.37
2022-11-05T22:56:53.739Z,82.58
2022-11-05T22:59:21.408Z,82.90
2022-11-05T23:01:49.526Z,82.02
2022-11-05T23:04:17.757Z,81.42
2022-11-05T23:07:04.102Z,82.49
2022-11-05T23:09:51.691Z,81.47
2022-11-05T23:12:23.038Z,80.79
2022-11-05T23:14:50.907Z,80.59
2022-11-05T23:17:36.201Z,80.41
2022-11-05T23:20:21.846Z,81.72
2022-11-05T23:23:08.481Z,80.66
2022-11-05T23:25:36.488Z,80.24
2022-11-05T23:28:09.724Z,79.47
2022-11-05T23:31:00.201Z,79.33
2022-11-05T23:33:26.851Z,79.72
2022-11-05T23:36:12.513Z,82.61
2022-11-05T23:38:41.448Z,81.05
2022-11-05T23:41:26.465Z,81.43
2022-11-05T23:44:11.884Z,81.21
2022-11-05T23:46:57.044Z,81.38
2022-11-05T23:49:24.780Z,80.66
2022-11-05T23:51:52.445Z,80.41
2022-11-05T23:54:21.863Z,81.75
2022-11-05T23:56:50.448Z,80.88
2022-11-05T23:59:17.999Z,80.96
